EZY16XL EGPH-LEAL
Flight info
| Callsign | EZY16XL |
|---|---|
| Flight time | N/A |
| Altitude | 35000 |
| Route | GOSAM1D GOSAM DCT VAPPI DCT ODIGI DCT LAKEY UL612 MID L151 DRAKE DCT SITET UN859 ETRAT/N0447F370 UN859 VANAD DCT SOMED DCT BEVOL DCT NERTI DCT USAKU DCT TEPTI DCT SAURA N860 VLC VLC3N |
| Aircraft | A320/M-SDE3FGHIRWY/LB1 |
Departure
| Time | 2026-04-23 18:10 |
|---|---|
| Airport | Edinburgh Airport (EGPH) |
Arrival
| Time | N/A |
|---|---|
| Airport | Alicante-Elche Miguel Hernández Airport (LEAL) |
| Time | Latitude | Longitude | Altitude | Speed | Heading |
|---|---|---|---|---|---|
| 2026-04-23 17:44 | 55.94995 | -3.36234 | 116 ft | 0 kts | 117° |
| 2026-04-23 17:59 | 55.95001 | -3.36255 | 113 ft | 4 kts | 117° |
| 2026-04-23 17:59 | 55.95013 | -3.36298 | 112 ft | 4 kts | 117° |
| 2026-04-23 17:59 | 55.95022 | -3.36332 | 112 ft | 4 kts | 103° |
| 2026-04-23 17:59 | 55.95021 | -3.36376 | 113 ft | 4 kts | 62° |
| 2026-04-23 18:00 | 55.95009 | -3.36412 | 113 ft | 4 kts | 58° |
| 2026-04-23 18:00 | 55.95003 | -3.36429 | 113 ft | 0 kts | 58° |
| 2026-04-23 18:03 | 55.95005 | -3.36422 | 112 ft | 3 kts | 58° |
| 2026-04-23 18:03 | 55.95034 | -3.36386 | 114 ft | 8 kts | 14° |
| 2026-04-23 18:03 | 55.95068 | -3.36420 | 116 ft | 11 kts | 300° |
| 2026-04-23 18:03 | 55.95038 | -3.36566 | 114 ft | 16 kts | 239° |
| 2026-04-23 18:04 | 55.94978 | -3.36744 | 114 ft | 19 kts | 239° |
| 2026-04-23 18:04 | 55.94912 | -3.36938 | 115 ft | 17 kts | 239° |
| 2026-04-23 18:04 | 55.94857 | -3.37102 | 115 ft | 14 kts | 238° |
| 2026-04-23 18:04 | 55.94802 | -3.37262 | 115 ft | 17 kts | 239° |
| 2026-04-23 18:05 | 55.94733 | -3.37467 | 115 ft | 21 kts | 238° |
| 2026-04-23 18:05 | 55.94660 | -3.37681 | 113 ft | 19 kts | 238° |
| 2026-04-23 18:05 | 55.94595 | -3.37871 | 115 ft | 17 kts | 239° |
| 2026-04-23 18:05 | 55.94537 | -3.38043 | 114 ft | 15 kts | 239° |
| 2026-04-23 18:06 | 55.94487 | -3.38192 | 116 ft | 13 kts | 239° |
| 2026-04-23 18:06 | 55.94442 | -3.38323 | 113 ft | 11 kts | 239° |
| 2026-04-23 18:06 | 55.94404 | -3.38437 | 114 ft | 10 kts | 238° |
| 2026-04-23 18:06 | 55.94367 | -3.38544 | 115 ft | 12 kts | 239° |
| 2026-04-23 18:07 | 55.94323 | -3.38676 | 115 ft | 12 kts | 239° |
| 2026-04-23 18:07 | 55.94284 | -3.38793 | 116 ft | 10 kts | 245° |
| 2026-04-23 18:07 | 55.94300 | -3.38884 | 115 ft | 7 kts | 326° |
| 2026-04-23 18:07 | 55.94329 | -3.38913 | 115 ft | 2 kts | 329° |
| 2026-04-23 18:08 | 55.94333 | -3.38916 | 116 ft | 0 kts | 329° |
| 2026-04-23 18:09 | 55.94366 | -3.38951 | 115 ft | 11 kts | 329° |
| 2026-04-23 18:09 | 55.94444 | -3.38892 | 114 ft | 16 kts | 62° |
| 2026-04-23 18:09 | 55.94530 | -3.38634 | 111 ft | 44 kts | 59° |
| 2026-04-23 18:09 | 55.94811 | -3.37807 | 113 ft | 110 kts | 59° |
| 2026-04-23 18:10 | 55.95305 | -3.36358 | 141 ft | 159 kts | 59° |
| 2026-04-23 18:10 | 55.95887 | -3.34597 | 531 ft | 174 kts | 60° |
| 2026-04-23 18:10 | 55.96611 | -3.32876 | 1287 ft | 173 kts | 46° |
| 2026-04-23 18:10 | 55.97535 | -3.31372 | 1769 ft | 190 kts | 42° |
| 2026-04-23 18:11 | 55.98599 | -3.29752 | 2091 ft | 212 kts | 42° |
| 2026-04-23 18:11 | 55.99845 | -3.28188 | 2480 ft | 231 kts | 20° |
| 2026-04-23 18:11 | 56.01498 | -3.28101 | 2828 ft | 253 kts | 340° |
| 2026-04-23 18:11 | 56.02918 | -3.29978 | 3474 ft | 260 kts | 302° |
| 2026-04-23 18:12 | 56.03443 | -3.33025 | 4288 ft | 260 kts | 268° |
| 2026-04-23 18:12 | 56.03209 | -3.36234 | 5164 ft | 262 kts | 256° |
| 2026-04-23 18:12 | 56.02732 | -3.39405 | 6013 ft | 265 kts | 252° |
| 2026-04-23 18:12 | 56.02186 | -3.42542 | 6854 ft | 267 kts | 252° |
| 2026-04-23 18:13 | 56.01630 | -3.45738 | 7618 ft | 271 kts | 252° |
| 2026-04-23 18:13 | 56.01092 | -3.48994 | 8430 ft | 273 kts | 253° |
| 2026-04-23 18:13 | 56.00580 | -3.52282 | 9244 ft | 276 kts | 253° |
| 2026-04-23 18:13 | 56.00084 | -3.55620 | 10009 ft | 279 kts | 254° |
| 2026-04-23 18:14 | 55.99596 | -3.59002 | 10697 ft | 286 kts | 254° |
| 2026-04-23 18:14 | 55.99091 | -3.62542 | 10905 ft | 309 kts | 254° |
| 2026-04-23 18:14 | 55.98538 | -3.66398 | 11073 ft | 331 kts | 254° |
| 2026-04-23 18:14 | 55.97954 | -3.70469 | 11515 ft | 342 kts | 254° |
| 2026-04-23 18:15 | 55.97359 | -3.74626 | 12143 ft | 347 kts | 255° |
| 2026-04-23 18:15 | 55.96757 | -3.78835 | 12796 ft | 351 kts | 255° |
| 2026-04-23 18:15 | 55.96144 | -3.83080 | 13449 ft | 355 kts | 255° |
| 2026-04-23 18:15 | 55.95520 | -3.87357 | 14127 ft | 358 kts | 255° |
| 2026-04-23 18:16 | 55.94886 | -3.91679 | 14734 ft | 361 kts | 255° |
| 2026-04-23 18:16 | 55.94255 | -3.95983 | 15277 ft | 365 kts | 253° |
| 2026-04-23 18:16 | 55.93267 | -4.00182 | 15759 ft | 369 kts | 237° |
| 2026-04-23 18:17 | 55.89564 | -4.06487 | 16857 ft | 374 kts | 214° |
| 2026-04-23 18:17 | 55.87428 | -4.09182 | 17387 ft | 378 kts | 214° |
| 2026-04-23 18:17 | 55.85272 | -4.11912 | 17936 ft | 382 kts | 214° |
| 2026-04-23 18:17 | 55.83048 | -4.14515 | 18491 ft | 384 kts | 206° |
| 2026-04-23 18:18 | 55.80556 | -4.16263 | 18978 ft | 387 kts | 193° |
| 2026-04-23 18:18 | 55.77889 | -4.16938 | 19445 ft | 389 kts | 180° |
| 2026-04-23 18:18 | 55.75193 | -4.16492 | 19941 ft | 391 kts | 167° |
| 2026-04-23 18:18 | 55.72611 | -4.14946 | 20470 ft | 393 kts | 155° |
| 2026-04-23 18:19 | 55.70126 | -4.12898 | 20964 ft | 396 kts | 155° |
| 2026-04-23 18:19 | 55.67609 | -4.10834 | 21378 ft | 400 kts | 155° |
| 2026-04-23 18:19 | 55.65065 | -4.08762 | 21822 ft | 404 kts | 155° |
| 2026-04-23 18:19 | 55.62533 | -4.06704 | 22276 ft | 406 kts | 155° |
| 2026-04-23 18:20 | 55.59946 | -4.04602 | 22736 ft | 409 kts | 155° |
| 2026-04-23 18:20 | 55.57348 | -4.02493 | 23145 ft | 412 kts | 155° |
| 2026-04-23 18:20 | 55.54757 | -4.00402 | 23565 ft | 415 kts | 155° |
| 2026-04-23 18:20 | 55.52121 | -3.98274 | 23986 ft | 417 kts | 155° |
| 2026-04-23 18:21 | 55.49463 | -3.96127 | 24324 ft | 420 kts | 155° |
| 2026-04-23 18:21 | 55.46802 | -3.93979 | 24682 ft | 421 kts | 155° |
| 2026-04-23 18:21 | 55.44153 | -3.91838 | 24992 ft | 424 kts | 155° |
| 2026-04-23 18:21 | 55.41455 | -3.89657 | 25314 ft | 427 kts | 155° |
| 2026-04-23 18:22 | 55.38739 | -3.87469 | 25624 ft | 429 kts | 155° |
| 2026-04-23 18:22 | 55.36042 | -3.85307 | 25855 ft | 434 kts | 155° |
| 2026-04-23 18:22 | 55.33273 | -3.83095 | 26117 ft | 437 kts | 155° |
| 2026-04-23 18:22 | 55.30494 | -3.80876 | 26425 ft | 439 kts | 155° |
| 2026-04-23 18:23 | 55.28648 | -3.79401 | 26618 ft | 441 kts | 155° |
| 2026-04-23 18:23 | 55.22109 | -3.74191 | 27305 ft | 445 kts | 155° |
| 2026-04-23 18:24 | 55.16428 | -3.69693 | 27830 ft | 451 kts | 155° |
| 2026-04-23 18:24 | 55.13552 | -3.67409 | 28067 ft | 454 kts | 155° |
| 2026-04-23 18:24 | 55.10677 | -3.65130 | 28347 ft | 455 kts | 155° |
| 2026-04-23 18:25 | 55.04902 | -3.60578 | 28821 ft | 460 kts | 155° |
| 2026-04-23 18:25 | 55.01980 | -3.58279 | 29080 ft | 461 kts | 155° |
| 2026-04-23 18:25 | 54.99051 | -3.55975 | 29328 ft | 462 kts | 155° |
| 2026-04-23 18:25 | 54.96138 | -3.53685 | 29553 ft | 464 kts | 155° |
| 2026-04-23 18:26 | 54.93180 | -3.51364 | 29743 ft | 466 kts | 155° |
| 2026-04-23 18:26 | 54.90221 | -3.49051 | 30024 ft | 466 kts | 155° |
| 2026-04-23 18:26 | 54.87293 | -3.46766 | 30319 ft | 466 kts | 155° |
| 2026-04-23 18:26 | 54.84328 | -3.44454 | 30595 ft | 465 kts | 155° |
| 2026-04-23 18:27 | 54.81373 | -3.42154 | 30843 ft | 465 kts | 155° |
| 2026-04-23 18:27 | 54.78415 | -3.39859 | 31075 ft | 465 kts | 155° |
| 2026-04-23 18:27 | 54.75458 | -3.37569 | 31313 ft | 465 kts | 155° |
| 2026-04-23 18:27 | 54.72528 | -3.35301 | 31545 ft | 465 kts | 155° |
| 2026-04-23 18:28 | 54.69559 | -3.33002 | 31793 ft | 465 kts | 155° |
| 2026-04-23 18:28 | 54.66629 | -3.30733 | 32006 ft | 466 kts | 155° |
| 2026-04-23 18:28 | 54.63656 | -3.28434 | 32233 ft | 466 kts | 155° |
| 2026-04-23 18:28 | 54.60684 | -3.26141 | 32471 ft | 467 kts | 155° |
| 2026-04-23 18:29 | 54.57741 | -3.23878 | 32713 ft | 467 kts | 155° |
| 2026-04-23 18:29 | 54.54764 | -3.21594 | 32970 ft | 467 kts | 155° |
| 2026-04-23 18:29 | 54.51828 | -3.19345 | 33131 ft | 469 kts | 155° |
| 2026-04-23 18:29 | 54.48836 | -3.17058 | 33308 ft | 470 kts | 155° |
| 2026-04-23 18:30 | 54.45825 | -3.14767 | 33530 ft | 471 kts | 155° |
| 2026-04-23 18:30 | 54.42827 | -3.12487 | 33741 ft | 471 kts | 155° |
| 2026-04-23 18:30 | 54.39860 | -3.10229 | 33964 ft | 472 kts | 155° |
| 2026-04-23 18:30 | 54.36858 | -3.07944 | 34182 ft | 472 kts | 155° |
| 2026-04-23 18:31 | 54.33856 | -3.05658 | 34401 ft | 472 kts | 155° |
| 2026-04-23 18:31 | 54.30855 | -3.03379 | 34617 ft | 471 kts | 155° |
| 2026-04-23 18:31 | 54.27860 | -3.01111 | 34831 ft | 471 kts | 155° |
| 2026-04-23 18:31 | 54.24866 | -2.98851 | 35066 ft | 470 kts | 155° |
| 2026-04-23 18:32 | 54.21875 | -2.96611 | 35299 ft | 469 kts | 155° |
| 2026-04-23 18:32 | 54.18883 | -2.94405 | 35417 ft | 469 kts | 156° |
| 2026-04-23 18:32 | 54.15881 | -2.92217 | 35438 ft | 469 kts | 156° |
| 2026-04-23 18:33 | 54.09878 | -2.87867 | 35432 ft | 468 kts | 156° |
| 2026-04-23 18:33 | 54.03883 | -2.83525 | 35428 ft | 468 kts | 156° |
| 2026-04-23 18:34 | 53.97886 | -2.79175 | 35428 ft | 468 kts | 156° |
| 2026-04-23 18:34 | 53.91891 | -2.74830 | 35427 ft | 469 kts | 156° |
| 2026-04-23 18:35 | 53.85895 | -2.70493 | 35434 ft | 469 kts | 156° |
| 2026-04-23 18:35 | 53.79893 | -2.66177 | 35429 ft | 469 kts | 156° |
| 2026-04-23 18:36 | 53.73928 | -2.61913 | 35427 ft | 468 kts | 156° |
| 2026-04-23 18:36 | 53.67925 | -2.57623 | 35439 ft | 468 kts | 156° |
| 2026-04-23 18:37 | 53.61932 | -2.53355 | 35439 ft | 468 kts | 156° |
| 2026-04-23 18:37 | 53.55935 | -2.49090 | 35438 ft | 467 kts | 156° |
| 2026-04-23 18:38 | 53.49925 | -2.44833 | 35441 ft | 468 kts | 156° |
| 2026-04-23 18:38 | 53.43944 | -2.40626 | 35442 ft | 468 kts | 156° |
| 2026-04-23 18:39 | 53.37953 | -2.36414 | 35448 ft | 467 kts | 156° |
| 2026-04-23 18:39 | 53.31946 | -2.32183 | 35446 ft | 467 kts | 156° |
| 2026-04-23 18:40 | 53.25963 | -2.27998 | 35449 ft | 467 kts | 156° |
| 2026-04-23 18:40 | 53.19971 | -2.23829 | 35445 ft | 468 kts | 156° |
| 2026-04-23 18:41 | 53.13984 | -2.19683 | 35442 ft | 468 kts | 156° |
| 2026-04-23 18:41 | 53.07956 | -2.15507 | 35435 ft | 468 kts | 156° |
| 2026-04-23 18:42 | 53.01969 | -2.11351 | 35434 ft | 468 kts | 156° |
| 2026-04-23 18:42 | 52.95961 | -2.07211 | 35435 ft | 468 kts | 156° |
| 2026-04-23 18:43 | 52.89960 | -2.03098 | 35422 ft | 468 kts | 156° |
| 2026-04-23 18:43 | 52.83933 | -1.98968 | 35452 ft | 466 kts | 156° |
| 2026-04-23 18:44 | 52.77973 | -1.94903 | 35455 ft | 464 kts | 156° |
| 2026-04-23 18:44 | 52.72028 | -1.90861 | 35451 ft | 462 kts | 156° |
| 2026-04-23 18:45 | 52.66058 | -1.86810 | 35432 ft | 462 kts | 156° |
| 2026-04-23 18:45 | 52.60142 | -1.82801 | 35424 ft | 462 kts | 156° |
| 2026-04-23 18:46 | 52.54204 | -1.78797 | 35426 ft | 462 kts | 157° |
| 2026-04-23 18:46 | 52.48238 | -1.74794 | 35424 ft | 462 kts | 157° |
| 2026-04-23 18:47 | 52.42308 | -1.70818 | 35415 ft | 462 kts | 157° |
| 2026-04-23 18:47 | 52.36372 | -1.66845 | 35410 ft | 463 kts | 156° |
| 2026-04-23 18:48 | 52.30497 | -1.62457 | 35407 ft | 462 kts | 152° |
| 2026-04-23 18:48 | 52.24813 | -1.57639 | 35452 ft | 462 kts | 151° |
| 2026-04-23 18:49 | 52.19097 | -1.52766 | 35453 ft | 463 kts | 152° |
| 2026-04-23 18:49 | 52.13373 | -1.48056 | 35453 ft | 463 kts | 152° |
| 2026-04-23 18:50 | 52.08590 | -1.44210 | 35449 ft | 453 kts | 153° |
| 2026-04-23 18:50 | 52.02075 | -1.38960 | 35389 ft | 449 kts | 152° |
| 2026-04-23 18:51 | 51.96450 | -1.34408 | 35383 ft | 450 kts | 152° |
| 2026-04-23 18:51 | 51.90881 | -1.29901 | 35383 ft | 450 kts | 153° |
| 2026-04-23 18:52 | 51.85277 | -1.25387 | 35384 ft | 450 kts | 153° |
| 2026-04-23 18:52 | 51.79663 | -1.20890 | 35385 ft | 451 kts | 153° |
| 2026-04-23 18:53 | 51.74019 | -1.16376 | 35362 ft | 452 kts | 153° |
| 2026-04-23 18:53 | 51.68385 | -1.11888 | 35359 ft | 454 kts | 153° |
| 2026-04-23 18:54 | 51.62706 | -1.07372 | 35368 ft | 455 kts | 151° |
| 2026-04-23 18:54 | 51.57443 | -1.01745 | 35374 ft | 454 kts | 143° |
| 2026-04-23 18:55 | 51.52317 | -0.95870 | 35356 ft | 456 kts | 143° |
| 2026-04-23 18:55 | 51.47225 | -0.90090 | 35382 ft | 442 kts | 145° |
| 2026-04-23 18:56 | 51.42743 | -0.86241 | 35384 ft | 439 kts | 158° |
| 2026-04-23 18:56 | 51.36150 | -0.82029 | 35384 ft | 436 kts | 158° |
| 2026-04-23 18:57 | 51.30480 | -0.78407 | 35383 ft | 441 kts | 157° |
| 2026-04-23 18:57 | 51.24761 | -0.74758 | 35378 ft | 443 kts | 158° |
| 2026-04-23 18:58 | 51.19028 | -0.71127 | 35364 ft | 444 kts | 158° |
| 2026-04-23 18:58 | 51.13288 | -0.67481 | 35371 ft | 444 kts | 158° |
| 2026-04-23 18:59 | 51.07571 | -0.63855 | 35380 ft | 444 kts | 158° |
| 2026-04-23 18:59 | 51.01824 | -0.60208 | 35355 ft | 444 kts | 157° |
| 2026-04-23 19:00 | 50.96144 | -0.56444 | 35350 ft | 443 kts | 156° |
| 2026-04-23 19:00 | 50.90446 | -0.52637 | 35342 ft | 444 kts | 157° |
| 2026-04-23 19:01 | 50.84766 | -0.48886 | 35335 ft | 444 kts | 157° |
| 2026-04-23 19:01 | 50.79019 | -0.45127 | 35339 ft | 446 kts | 157° |
| 2026-04-23 19:02 | 50.74232 | -0.42009 | 35340 ft | 446 kts | 157° |
| 2026-04-23 19:02 | 50.67566 | -0.37652 | 35334 ft | 447 kts | 157° |
| 2026-04-23 19:03 | 50.62770 | -0.34531 | 35330 ft | 448 kts | 157° |
| 2026-04-23 19:03 | 50.56979 | -0.30773 | 35325 ft | 451 kts | 157° |
| 2026-04-23 19:04 | 50.51144 | -0.26996 | 35321 ft | 453 kts | 157° |
| 2026-04-23 19:04 | 50.45324 | -0.23243 | 35330 ft | 454 kts | 157° |
| 2026-04-23 19:05 | 50.39443 | -0.19463 | 35317 ft | 457 kts | 157° |
| 2026-04-23 19:05 | 50.33574 | -0.15700 | 35314 ft | 460 kts | 157° |
| 2026-04-23 19:06 | 50.27620 | -0.11889 | 35320 ft | 461 kts | 157° |
| 2026-04-23 19:06 | 50.21674 | -0.08080 | 35317 ft | 463 kts | 157° |
| 2026-04-23 19:07 | 50.15736 | -0.04124 | 35315 ft | 466 kts | 156° |
| 2026-04-23 19:07 | 50.09737 | -0.00053 | 35334 ft | 471 kts | 161° |
| 2026-04-23 19:07 | 50.06663 | 0.01343 | 35332 ft | 460 kts | 165° |
| 2026-04-23 19:08 | 50.03579 | 0.02589 | 35412 ft | 456 kts | 165° |
| 2026-04-23 19:08 | 50.00504 | 0.03800 | 35702 ft | 453 kts | 166° |
| 2026-04-23 19:08 | 49.97443 | 0.04988 | 35933 ft | 452 kts | 166° |
| 2026-04-23 19:08 | 49.94391 | 0.06168 | 36072 ft | 453 kts | 166° |
| 2026-04-23 19:09 | 49.91324 | 0.07358 | 36202 ft | 455 kts | 166° |
| 2026-04-23 19:09 | 49.88246 | 0.08557 | 36313 ft | 456 kts | 166° |
| 2026-04-23 19:09 | 49.85157 | 0.09765 | 36443 ft | 457 kts | 166° |
| 2026-04-23 19:09 | 49.82066 | 0.10971 | 36566 ft | 458 kts | 166° |
| 2026-04-23 19:10 | 49.79012 | 0.12166 | 36710 ft | 457 kts | 166° |
| 2026-04-23 19:10 | 49.75918 | 0.13376 | 36877 ft | 457 kts | 166° |
| 2026-04-23 19:10 | 49.72816 | 0.14590 | 36996 ft | 457 kts | 166° |
| 2026-04-23 19:10 | 49.69725 | 0.15796 | 37133 ft | 458 kts | 166° |
| 2026-04-23 19:11 | 49.66676 | 0.16978 | 37261 ft | 458 kts | 166° |
| 2026-04-23 19:11 | 49.60482 | 0.19440 | 37279 ft | 460 kts | 166° |
| 2026-04-23 19:12 | 49.54270 | 0.21975 | 37275 ft | 461 kts | 166° |
| 2026-04-23 19:12 | 49.48058 | 0.24488 | 37276 ft | 462 kts | 166° |
| 2026-04-23 19:13 | 49.41837 | 0.26972 | 37274 ft | 463 kts | 166° |
| 2026-04-23 19:13 | 49.35622 | 0.29455 | 37276 ft | 463 kts | 166° |
| 2026-04-23 19:14 | 49.29420 | 0.31935 | 37275 ft | 463 kts | 166° |
| 2026-04-23 19:14 | 49.23185 | 0.34544 | 37273 ft | 464 kts | 165° |
| 2026-04-23 19:15 | 49.16989 | 0.37198 | 37272 ft | 465 kts | 165° |
| 2026-04-23 19:15 | 49.10733 | 0.39847 | 37276 ft | 465 kts | 165° |
| 2026-04-23 19:16 | 49.04477 | 0.42472 | 37265 ft | 466 kts | 165° |
| 2026-04-23 19:16 | 48.98247 | 0.45065 | 37277 ft | 466 kts | 165° |
| 2026-04-23 19:17 | 48.88851 | 0.48966 | 37289 ft | 465 kts | 165° |
| 2026-04-23 19:17 | 48.82655 | 0.51532 | 37287 ft | 464 kts | 165° |
| 2026-04-23 19:18 | 48.76412 | 0.54102 | 37286 ft | 464 kts | 166° |
| 2026-04-23 19:18 | 48.70153 | 0.56560 | 37283 ft | 464 kts | 166° |
| 2026-04-23 19:19 | 48.60790 | 0.60181 | 37267 ft | 464 kts | 166° |
| 2026-04-23 19:20 | 48.51416 | 0.63823 | 37255 ft | 465 kts | 166° |
| 2026-04-23 19:20 | 48.45130 | 0.66352 | 37249 ft | 466 kts | 165° |
| 2026-04-23 19:21 | 48.35752 | 0.70220 | 37233 ft | 467 kts | 165° |
| 2026-04-23 19:22 | 48.29489 | 0.72762 | 37233 ft | 468 kts | 166° |
| 2026-04-23 19:22 | 48.20053 | 0.76527 | 37226 ft | 469 kts | 166° |
| 2026-04-23 19:23 | 48.13713 | 0.79003 | 37229 ft | 470 kts | 166° |
| 2026-04-23 19:24 | 48.04236 | 0.82712 | 37224 ft | 471 kts | 166° |
| 2026-04-23 19:24 | 47.94720 | 0.86450 | 37231 ft | 471 kts | 166° |
| 2026-04-23 19:25 | 47.82026 | 0.90863 | 37226 ft | 468 kts | 177° |
| 2026-04-23 19:26 | 47.72267 | 0.91715 | 37205 ft | 469 kts | 178° |
| 2026-04-23 19:27 | 47.55961 | 0.93130 | 37188 ft | 470 kts | 178° |
| 2026-04-23 19:28 | 47.42913 | 0.94242 | 37196 ft | 470 kts | 180° |
| 2026-04-23 19:29 | 47.33142 | 0.94112 | 37197 ft | 469 kts | 184° |
| 2026-04-23 19:30 | 47.23364 | 0.93615 | 37198 ft | 470 kts | 184° |
| 2026-04-23 19:31 | 47.13564 | 0.93374 | 37195 ft | 470 kts | 183° |
| 2026-04-23 19:31 | 47.07002 | 0.93237 | 37190 ft | 470 kts | 183° |
| 2026-04-23 19:32 | 47.00500 | 0.93073 | 37192 ft | 470 kts | 183° |
| 2026-04-23 19:32 | 46.93952 | 0.92921 | 37184 ft | 470 kts | 183° |
| 2026-04-23 19:33 | 46.87450 | 0.92799 | 37181 ft | 470 kts | 183° |
| 2026-04-23 19:33 | 46.77656 | 0.92618 | 37186 ft | 469 kts | 183° |
| 2026-04-23 19:34 | 46.71117 | 0.92491 | 37183 ft | 469 kts | 183° |
| 2026-04-23 19:35 | 46.61326 | 0.92297 | 37173 ft | 469 kts | 183° |
| 2026-04-23 19:35 | 46.54827 | 0.92178 | 37158 ft | 469 kts | 183° |
| 2026-04-23 19:36 | 46.48290 | 0.92058 | 37161 ft | 469 kts | 183° |
| 2026-04-23 19:36 | 46.41786 | 0.91926 | 37166 ft | 469 kts | 183° |
| 2026-04-23 19:37 | 46.35289 | 0.91784 | 37162 ft | 468 kts | 183° |
| 2026-04-23 19:37 | 46.28763 | 0.91658 | 37167 ft | 468 kts | 183° |
| 2026-04-23 19:38 | 46.22279 | 0.91540 | 37161 ft | 467 kts | 183° |
| 2026-04-23 19:38 | 46.15781 | 0.91420 | 37149 ft | 467 kts | 183° |
| 2026-04-23 19:39 | 46.09260 | 0.91298 | 37156 ft | 467 kts | 183° |
| 2026-04-23 19:39 | 46.02788 | 0.91169 | 37159 ft | 466 kts | 183° |
| 2026-04-23 19:40 | 45.96320 | 0.91039 | 37143 ft | 466 kts | 183° |
| 2026-04-23 19:40 | 45.89807 | 0.90922 | 37153 ft | 465 kts | 183° |
| 2026-04-23 19:41 | 45.83351 | 0.90805 | 37153 ft | 465 kts | 183° |
| 2026-04-23 19:41 | 45.76894 | 0.90678 | 37150 ft | 465 kts | 183° |
| 2026-04-23 19:42 | 45.70415 | 0.90497 | 37148 ft | 463 kts | 187° |
| 2026-04-23 19:42 | 45.64095 | 0.89156 | 37149 ft | 461 kts | 192° |
| 2026-04-23 19:43 | 45.57758 | 0.87703 | 37145 ft | 461 kts | 192° |
| 2026-04-23 19:43 | 45.51443 | 0.86256 | 37145 ft | 461 kts | 192° |
| 2026-04-23 19:44 | 45.45090 | 0.84799 | 37145 ft | 461 kts | 192° |
| 2026-04-23 19:44 | 45.38784 | 0.83358 | 37151 ft | 460 kts | 192° |
| 2026-04-23 19:45 | 45.32478 | 0.81924 | 37151 ft | 460 kts | 192° |
| 2026-04-23 19:45 | 45.26170 | 0.80496 | 37152 ft | 460 kts | 192° |
| 2026-04-23 19:46 | 45.19870 | 0.79077 | 37151 ft | 459 kts | 192° |
| 2026-04-23 19:46 | 45.13542 | 0.77643 | 37146 ft | 459 kts | 192° |
| 2026-04-23 19:47 | 45.08281 | 0.76460 | 37140 ft | 459 kts | 192° |
| 2026-04-23 19:47 | 45.00974 | 0.74830 | 37141 ft | 458 kts | 192° |
| 2026-04-23 19:48 | 44.94671 | 0.73423 | 37121 ft | 457 kts | 192° |
| 2026-04-23 19:48 | 44.88404 | 0.72008 | 37126 ft | 457 kts | 192° |
| 2026-04-23 19:49 | 44.82157 | 0.70606 | 37124 ft | 456 kts | 192° |
| 2026-04-23 19:49 | 44.75866 | 0.69210 | 37122 ft | 456 kts | 192° |
| 2026-04-23 19:50 | 44.69620 | 0.67823 | 37119 ft | 455 kts | 192° |
| 2026-04-23 19:50 | 44.63381 | 0.66436 | 37117 ft | 455 kts | 192° |
| 2026-04-23 19:51 | 44.57110 | 0.65036 | 37113 ft | 456 kts | 192° |
| 2026-04-23 19:51 | 44.50857 | 0.63664 | 37119 ft | 456 kts | 192° |
| 2026-04-23 19:52 | 44.45632 | 0.62522 | 37119 ft | 456 kts | 192° |
| 2026-04-23 19:52 | 44.38328 | 0.60915 | 37107 ft | 456 kts | 192° |
| 2026-04-23 19:53 | 44.32078 | 0.59534 | 37113 ft | 456 kts | 192° |
| 2026-04-23 19:53 | 44.25838 | 0.58160 | 37120 ft | 455 kts | 192° |
| 2026-04-23 19:54 | 44.19564 | 0.56798 | 37117 ft | 455 kts | 192° |
| 2026-04-23 19:54 | 44.13321 | 0.55444 | 37119 ft | 456 kts | 192° |
| 2026-04-23 19:55 | 44.07030 | 0.54074 | 37117 ft | 455 kts | 192° |
| 2026-04-23 19:55 | 44.00791 | 0.52721 | 37109 ft | 455 kts | 192° |
| 2026-04-23 19:56 | 43.94522 | 0.51367 | 37114 ft | 456 kts | 192° |
| 2026-04-23 19:56 | 43.88256 | 0.50015 | 37119 ft | 456 kts | 192° |
| 2026-04-23 19:57 | 43.82009 | 0.48665 | 37112 ft | 456 kts | 192° |
| 2026-04-23 19:57 | 43.76788 | 0.47537 | 37118 ft | 455 kts | 192° |
| 2026-04-23 19:58 | 43.69484 | 0.45963 | 37120 ft | 456 kts | 192° |
| 2026-04-23 19:58 | 43.63252 | 0.44626 | 37118 ft | 456 kts | 191° |
| 2026-04-23 19:59 | 43.56998 | 0.43308 | 37114 ft | 455 kts | 191° |
| 2026-04-23 19:59 | 43.50725 | 0.41975 | 37116 ft | 455 kts | 192° |
| 2026-04-23 20:00 | 43.44487 | 0.40630 | 37115 ft | 455 kts | 192° |
| 2026-04-23 20:00 | 43.38258 | 0.39312 | 37105 ft | 455 kts | 191° |
| 2026-04-23 20:01 | 43.31973 | 0.38090 | 37114 ft | 455 kts | 191° |
| 2026-04-23 20:01 | 43.25719 | 0.36918 | 37124 ft | 454 kts | 191° |
| 2026-04-23 20:02 | 43.19487 | 0.35734 | 37120 ft | 453 kts | 191° |
| 2026-04-23 20:02 | 43.13282 | 0.34546 | 37129 ft | 452 kts | 191° |
| 2026-04-23 20:03 | 43.07043 | 0.33335 | 37141 ft | 451 kts | 191° |
| 2026-04-23 20:03 | 43.00841 | 0.32135 | 37149 ft | 451 kts | 191° |
| 2026-04-23 20:04 | 42.94625 | 0.30949 | 37154 ft | 450 kts | 191° |
| 2026-04-23 20:04 | 42.88455 | 0.29774 | 37158 ft | 449 kts | 191° |
| 2026-04-23 20:05 | 42.83297 | 0.28796 | 37167 ft | 449 kts | 191° |
| 2026-04-23 20:05 | 42.76100 | 0.27417 | 37182 ft | 449 kts | 191° |
| 2026-04-23 20:06 | 42.69941 | 0.26239 | 37173 ft | 448 kts | 191° |
| 2026-04-23 20:06 | 42.63744 | 0.25072 | 37192 ft | 449 kts | 191° |
| 2026-04-23 20:07 | 42.57589 | 0.23915 | 37198 ft | 449 kts | 191° |
| 2026-04-23 20:07 | 42.51394 | 0.22749 | 37207 ft | 448 kts | 191° |
| 2026-04-23 20:08 | 42.45242 | 0.21585 | 37209 ft | 448 kts | 191° |
| 2026-04-23 20:08 | 42.39091 | 0.20429 | 37203 ft | 448 kts | 191° |
| 2026-04-23 20:09 | 42.32900 | 0.19277 | 37204 ft | 447 kts | 191° |
| 2026-04-23 20:09 | 42.26764 | 0.18127 | 37200 ft | 447 kts | 191° |
| 2026-04-23 20:10 | 42.21635 | 0.17160 | 37200 ft | 447 kts | 191° |
| 2026-04-23 20:10 | 42.14466 | 0.15823 | 37191 ft | 446 kts | 190° |
| 2026-04-23 20:11 | 42.09352 | 0.14872 | 37187 ft | 446 kts | 190° |
| 2026-04-23 20:11 | 42.03221 | 0.13740 | 37187 ft | 446 kts | 190° |
| 2026-04-23 20:12 | 41.96060 | 0.12413 | 37180 ft | 445 kts | 191° |
| 2026-04-23 20:12 | 41.90955 | 0.11464 | 37195 ft | 445 kts | 190° |
| 2026-04-23 20:13 | 41.84819 | 0.10330 | 37188 ft | 444 kts | 190° |
| 2026-04-23 20:13 | 41.78716 | 0.09209 | 37177 ft | 444 kts | 190° |
| 2026-04-23 20:14 | 41.72583 | 0.08083 | 37169 ft | 444 kts | 190° |
| 2026-04-23 20:14 | 41.66444 | 0.06956 | 37181 ft | 444 kts | 190° |
| 2026-04-23 20:15 | 41.60353 | 0.05835 | 37173 ft | 444 kts | 190° |
| 2026-04-23 20:15 | 41.54224 | 0.04706 | 37166 ft | 444 kts | 190° |
| 2026-04-23 20:16 | 41.48139 | 0.03596 | 37165 ft | 444 kts | 190° |
| 2026-04-23 20:16 | 41.42037 | 0.02490 | 37158 ft | 443 kts | 190° |
| 2026-04-23 20:17 | 41.35899 | 0.01372 | 37168 ft | 443 kts | 190° |
| 2026-04-23 20:17 | 41.29807 | 0.00264 | 37155 ft | 443 kts | 190° |
| 2026-04-23 20:18 | 41.23687 | -0.00840 | 37157 ft | 443 kts | 190° |
| 2026-04-23 20:18 | 41.17605 | -0.01940 | 37165 ft | 442 kts | 190° |
| 2026-04-23 20:19 | 41.11539 | -0.03038 | 37160 ft | 441 kts | 190° |
| 2026-04-23 20:19 | 41.05478 | -0.04128 | 37161 ft | 440 kts | 190° |
| 2026-04-23 20:20 | 40.99420 | -0.05218 | 37163 ft | 440 kts | 190° |
| 2026-04-23 20:20 | 40.93346 | -0.06310 | 37162 ft | 439 kts | 190° |
| 2026-04-23 20:21 | 40.87278 | -0.07400 | 37161 ft | 439 kts | 190° |
| 2026-04-23 20:21 | 40.81251 | -0.08481 | 37167 ft | 439 kts | 190° |
| 2026-04-23 20:22 | 40.75223 | -0.09557 | 37167 ft | 438 kts | 190° |
| 2026-04-23 20:22 | 40.69164 | -0.10634 | 37171 ft | 438 kts | 190° |
| 2026-04-23 20:23 | 40.63140 | -0.11703 | 37163 ft | 438 kts | 190° |
| 2026-04-23 20:23 | 40.57123 | -0.12776 | 37132 ft | 438 kts | 190° |
| 2026-04-23 20:24 | 40.51073 | -0.13840 | 37105 ft | 438 kts | 190° |
| 2026-04-23 20:24 | 40.45027 | -0.14914 | 37082 ft | 438 kts | 190° |
| 2026-04-23 20:25 | 40.39013 | -0.15987 | 37061 ft | 437 kts | 190° |
| 2026-04-23 20:25 | 40.32999 | -0.17043 | 37050 ft | 437 kts | 189° |
| 2026-04-23 20:26 | 40.26977 | -0.18097 | 37054 ft | 436 kts | 191° |
| 2026-04-23 20:26 | 40.21145 | -0.20100 | 37072 ft | 433 kts | 199° |
| 2026-04-23 20:27 | 40.15412 | -0.22358 | 37090 ft | 433 kts | 198° |
| 2026-04-23 20:27 | 40.09641 | -0.24614 | 37116 ft | 433 kts | 198° |
| 2026-04-23 20:28 | 40.03868 | -0.26867 | 37179 ft | 433 kts | 198° |
| 2026-04-23 20:28 | 39.98104 | -0.29114 | 37171 ft | 432 kts | 198° |
| 2026-04-23 20:29 | 39.92333 | -0.31358 | 37165 ft | 432 kts | 198° |
| 2026-04-23 20:29 | 39.86576 | -0.33602 | 37165 ft | 432 kts | 198° |
| 2026-04-23 20:30 | 39.80857 | -0.35836 | 36721 ft | 434 kts | 198° |
| 2026-04-23 20:30 | 39.75022 | -0.38105 | 34908 ft | 440 kts | 198° |
| 2026-04-23 20:30 | 39.72065 | -0.39246 | 34040 ft | 442 kts | 198° |
| 2026-04-23 20:31 | 39.69103 | -0.40387 | 33067 ft | 445 kts | 198° |
| 2026-04-23 20:31 | 39.66158 | -0.41521 | 32091 ft | 447 kts | 198° |
| 2026-04-23 20:31 | 39.63156 | -0.42678 | 31124 ft | 450 kts | 198° |
| 2026-04-23 20:31 | 39.60173 | -0.43826 | 30324 ft | 449 kts | 198° |
| 2026-04-23 20:32 | 39.57181 | -0.44975 | 29645 ft | 443 kts | 198° |
| 2026-04-23 20:32 | 39.54265 | -0.46097 | 29003 ft | 437 kts | 198° |
| 2026-04-23 20:32 | 39.51341 | -0.47160 | 28359 ft | 433 kts | 193° |
| 2026-04-23 20:32 | 39.48394 | -0.47661 | 27727 ft | 430 kts | 183° |
| 2026-04-23 20:33 | 39.45406 | -0.47478 | 27070 ft | 429 kts | 173° |
| 2026-04-23 20:33 | 39.42476 | -0.46769 | 26409 ft | 427 kts | 170° |
| 2026-04-23 20:33 | 39.39569 | -0.46029 | 25767 ft | 424 kts | 170° |
| 2026-04-23 20:33 | 39.36683 | -0.45301 | 25113 ft | 422 kts | 170° |
| 2026-04-23 20:34 | 39.33807 | -0.44578 | 24482 ft | 420 kts | 170° |
| 2026-04-23 20:34 | 39.30946 | -0.43862 | 23865 ft | 418 kts | 170° |
| 2026-04-23 20:34 | 39.28101 | -0.43148 | 23202 ft | 415 kts | 170° |
| 2026-04-23 20:34 | 39.25285 | -0.42439 | 22625 ft | 410 kts | 170° |
| 2026-04-23 20:35 | 39.22522 | -0.41742 | 22094 ft | 406 kts | 170° |
| 2026-04-23 20:35 | 39.19756 | -0.41046 | 21563 ft | 402 kts | 171° |
| 2026-04-23 20:35 | 39.17010 | -0.40359 | 21053 ft | 398 kts | 170° |
| 2026-04-23 20:35 | 39.14294 | -0.39678 | 20531 ft | 395 kts | 171° |
| 2026-04-23 20:36 | 39.11631 | -0.39012 | 20009 ft | 392 kts | 171° |
| 2026-04-23 20:36 | 39.08959 | -0.38346 | 19489 ft | 390 kts | 171° |
| 2026-04-23 20:36 | 39.06291 | -0.37681 | 18960 ft | 388 kts | 171° |
| 2026-04-23 20:36 | 39.03679 | -0.37030 | 18431 ft | 386 kts | 171° |
| 2026-04-23 20:37 | 39.01035 | -0.36371 | 17833 ft | 384 kts | 171° |
| 2026-04-23 20:37 | 38.98419 | -0.35720 | 17283 ft | 381 kts | 171° |
| 2026-04-23 20:37 | 38.95821 | -0.35075 | 16735 ft | 379 kts | 171° |
| 2026-04-23 20:37 | 38.93244 | -0.34433 | 16183 ft | 376 kts | 170° |
| 2026-04-23 20:38 | 38.90681 | -0.33792 | 15634 ft | 374 kts | 170° |
| 2026-04-23 20:38 | 38.88131 | -0.33153 | 15086 ft | 372 kts | 171° |
| 2026-04-23 20:38 | 38.85602 | -0.32522 | 14563 ft | 369 kts | 171° |
| 2026-04-23 20:38 | 38.83092 | -0.31899 | 14033 ft | 367 kts | 171° |
| 2026-04-23 20:39 | 38.80597 | -0.31281 | 13469 ft | 364 kts | 171° |
| 2026-04-23 20:39 | 38.78112 | -0.30667 | 12917 ft | 361 kts | 170° |
| 2026-04-23 20:39 | 38.75657 | -0.30061 | 12384 ft | 358 kts | 170° |
| 2026-04-23 20:39 | 38.73244 | -0.29465 | 11863 ft | 354 kts | 170° |
| 2026-04-23 20:40 | 38.70829 | -0.28871 | 11319 ft | 351 kts | 170° |
| 2026-04-23 20:40 | 38.68441 | -0.28282 | 10793 ft | 348 kts | 169° |
| 2026-04-23 20:40 | 38.66085 | -0.27697 | 10621 ft | 337 kts | 169° |
| 2026-04-23 20:40 | 38.63831 | -0.27138 | 10490 ft | 323 kts | 169° |
| 2026-04-23 20:41 | 38.61667 | -0.26605 | 10371 ft | 311 kts | 169° |
| 2026-04-23 20:41 | 38.59585 | -0.26092 | 10252 ft | 299 kts | 169° |
| 2026-04-23 20:41 | 38.57572 | -0.25598 | 10085 ft | 290 kts | 169° |
| 2026-04-23 20:41 | 38.55632 | -0.25121 | 9868 ft | 289 kts | 169° |
| 2026-04-23 20:42 | 38.53630 | -0.24627 | 9345 ft | 293 kts | 168° |
| 2026-04-23 20:42 | 38.51655 | -0.24141 | 9104 ft | 285 kts | 168° |
| 2026-04-23 20:42 | 38.49745 | -0.23672 | 8976 ft | 274 kts | 168° |
| 2026-04-23 20:42 | 38.47911 | -0.23232 | 8850 ft | 263 kts | 171° |
| 2026-04-23 20:43 | 38.46122 | -0.23252 | 8672 ft | 255 kts | 188° |
| 2026-04-23 20:43 | 38.44437 | -0.23892 | 8317 ft | 251 kts | 197° |
| 2026-04-23 20:43 | 38.42797 | -0.24635 | 7720 ft | 250 kts | 197° |
| 2026-04-23 20:43 | 38.41155 | -0.25376 | 7153 ft | 250 kts | 197° |
| 2026-04-23 20:44 | 38.39515 | -0.26117 | 6635 ft | 247 kts | 197° |
| 2026-04-23 20:44 | 38.37920 | -0.26838 | 6208 ft | 246 kts | 200° |
| 2026-04-23 20:44 | 38.36320 | -0.27560 | 5808 ft | 240 kts | 200° |
| 2026-04-23 20:44 | 38.34745 | -0.28269 | 5479 ft | 240 kts | 200° |
| 2026-04-23 20:45 | 38.33157 | -0.28982 | 4873 ft | 249 kts | 200° |
| 2026-04-23 20:45 | 38.31476 | -0.29738 | 4111 ft | 263 kts | 200° |
| 2026-04-23 20:45 | 38.29710 | -0.30534 | 3357 ft | 275 kts | 200° |